sensor_id;sensor_type;location;lat;lon;timestamp;P1;durP1;ratioP1;P2;durP2;ratioP2
22138;SDS011;25815;52.582;13.408;2023-07-02T00:01:43;4.47;;;2.72;;
22138;SDS011;25815;52.582;13.408;2023-07-02T00:04:09;3.35;;;2.33;;
22138;SDS011;25815;52.582;13.408;2023-07-02T00:06:38;4.55;;;2.53;;
22138;SDS011;25815;52.582;13.408;2023-07-02T00:09:05;3.55;;;2.30;;
22138;SDS011;25815;52.582;13.408;2023-07-02T00:11:31;2.40;;;2.20;;
22138;SDS011;25815;52.582;13.408;2023-07-02T00:13:57;3.40;;;1.90;;
22138;SDS011;25815;52.582;13.408;2023-07-02T00:16:23;3.22;;;2.17;;
22138;SDS011;25815;52.582;13.408;2023-07-02T00:18:49;3.50;;;2.25;;
22138;SDS011;25815;52.582;13.408;2023-07-02T00:21:18;2.90;;;2.27;;
22138;SDS011;25815;52.582;13.408;2023-07-02T00:23:44;2.63;;;2.42;;
22138;SDS011;25815;52.582;13.408;2023-07-02T00:26:10;2.35;;;2.15;;
22138;SDS011;25815;52.582;13.408;2023-07-02T00:28:36;2.45;;;2.25;;
22138;SDS011;25815;52.582;13.408;2023-07-02T00:31:02;2.42;;;2.22;;
22138;SDS011;25815;52.582;13.408;2023-07-02T00:33:28;3.45;;;2.47;;
22138;SDS011;25815;52.582;13.408;2023-07-02T00:35:54;2.70;;;2.50;;
22138;SDS011;25815;52.582;13.408;2023-07-02T00:38:20;3.40;;;2.58;;
22138;SDS011;25815;52.582;13.408;2023-07-02T00:40:46;2.80;;;2.47;;
22138;SDS011;25815;52.582;13.408;2023-07-02T00:43:12;5.68;;;2.78;;
22138;SDS011;25815;52.582;13.408;2023-07-02T00:45:38;3.25;;;2.65;;
22138;SDS011;25815;52.582;13.408;2023-07-02T00:48:05;5.55;;;2.72;;
22138;SDS011;25815;52.582;13.408;2023-07-02T00:50:31;2.65;;;2.40;;
22138;SDS011;25815;52.582;13.408;2023-07-02T00:52:57;2.63;;;2.42;;
22138;SDS011;25815;52.582;13.408;2023-07-02T00:55:23;3.78;;;2.60;;
22138;SDS011;25815;52.582;13.408;2023-07-02T00:57:49;3.55;;;2.75;;
22138;SDS011;25815;52.582;13.408;2023-07-02T01:00:15;3.00;;;2.80;;
22138;SDS011;25815;52.582;13.408;2023-07-02T01:02:42;3.70;;;2.55;;
22138;SDS011;25815;52.582;13.408;2023-07-02T01:05:09;5.15;;;2.83;;
22138;SDS011;25815;52.582;13.408;2023-07-02T01:07:35;4.40;;;3.28;;
22138;SDS011;25815;52.582;13.408;2023-07-02T01:10:01;4.88;;;2.90;;
22138;SDS011;25815;52.582;13.408;2023-07-02T01:12:26;5.68;;;2.95;;
22138;SDS011;25815;52.582;13.408;2023-07-02T01:14:53;4.55;;;3.25;;
22138;SDS011;25815;52.582;13.408;2023-07-02T01:17:20;6.72;;;3.30;;
22138;SDS011;25815;52.582;13.408;2023-07-02T01:19:51;5.18;;;3.50;;
22138;SDS011;25815;52.582;13.408;2023-07-02T01:22:18;7.00;;;3.30;;
22138;SDS011;25815;52.582;13.408;2023-07-02T01:24:44;5.32;;;3.47;;
22138;SDS011;25815;52.582;13.408;2023-07-02T01:27:14;4.22;;;3.75;;
22138;SDS011;25815;52.582;13.408;2023-07-02T01:29:40;4.93;;;3.78;;
22138;SDS011;25815;52.582;13.408;2023-07-02T01:32:06;5.38;;;3.78;;
22138;SDS011;25815;52.582;13.408;2023-07-02T01:34:33;4.43;;;3.58;;
22138;SDS011;25815;52.582;13.408;2023-07-02T01:37:00;4.38;;;3.78;;
22138;SDS011;25815;52.582;13.408;2023-07-02T01:39:26;5.68;;;3.90;;
22138;SDS011;25815;52.582;13.408;2023-07-02T01:41:54;5.03;;;3.90;;
22138;SDS011;25815;52.582;13.408;2023-07-02T01:44:21;5.15;;;4.43;;
22138;SDS011;25815;52.582;13.408;2023-07-02T01:46:47;5.35;;;4.68;;
22138;SDS011;25815;52.582;13.408;2023-07-02T01:49:17;5.38;;;4.60;;
22138;SDS011;25815;52.582;13.408;2023-07-02T01:54:09;5.80;;;4.40;;
22138;SDS011;25815;52.582;13.408;2023-07-02T01:56:35;5.25;;;4.63;;
22138;SDS011;25815;52.582;13.408;2023-07-02T01:59:01;6.18;;;5.28;;
22138;SDS011;25815;52.582;13.408;2023-07-02T02:01:27;6.32;;;5.10;;
22138;SDS011;25815;52.582;13.408;2023-07-02T02:03:53;5.22;;;4.57;;
22138;SDS011;25815;52.582;13.408;2023-07-02T02:06:19;8.60;;;5.40;;
22138;SDS011;25815;52.582;13.408;2023-07-02T02:08:45;8.00;;;4.82;;
22138;SDS011;25815;52.582;13.408;2023-07-02T02:11:11;5.68;;;5.00;;
22138;SDS011;25815;52.582;13.408;2023-07-02T02:13:37;6.18;;;5.53;;
22138;SDS011;25815;52.582;13.408;2023-07-02T02:16:03;5.78;;;5.28;;
22138;SDS011;25815;52.582;13.408;2023-07-02T02:18:29;7.38;;;6.32;;
22138;SDS011;25815;52.582;13.408;2023-07-02T02:20:55;6.80;;;5.97;;
22138;SDS011;25815;52.582;13.408;2023-07-02T02:23:21;6.57;;;5.45;;
22138;SDS011;25815;52.582;13.408;2023-07-02T02:25:46;8.45;;;6.80;;
22138;SDS011;25815;52.582;13.408;2023-07-02T02:28:12;11.13;;;6.88;;
22138;SDS011;25815;52.582;13.408;2023-07-02T02:30:38;8.13;;;5.70;;
22138;SDS011;25815;52.582;13.408;2023-07-02T02:33:04;7.80;;;6.65;;
22138;SDS011;25815;52.582;13.408;2023-07-02T02:35:30;8.25;;;5.97;;
22138;SDS011;25815;52.582;13.408;2023-07-02T02:37:56;6.60;;;5.80;;
22138;SDS011;25815;52.582;13.408;2023-07-02T02:40:22;11.38;;;6.72;;
22138;SDS011;25815;52.582;13.408;2023-07-02T02:42:48;7.45;;;6.32;;
22138;SDS011;25815;52.582;13.408;2023-07-02T02:45:14;8.90;;;5.90;;
22138;SDS011;25815;52.582;13.408;2023-07-02T02:47:40;9.27;;;6.00;;
22138;SDS011;25815;52.582;13.408;2023-07-02T02:50:06;6.82;;;5.53;;
22138;SDS011;25815;52.582;13.408;2023-07-02T02:52:32;7.43;;;5.55;;
22138;SDS011;25815;52.582;13.408;2023-07-02T02:54:58;8.55;;;6.03;;
22138;SDS011;25815;52.582;13.408;2023-07-02T02:57:24;6.20;;;5.30;;
22138;SDS011;25815;52.582;13.408;2023-07-02T02:59:50;7.57;;;5.68;;
22138;SDS011;25815;52.582;13.408;2023-07-02T03:02:16;6.07;;;5.45;;
22138;SDS011;25815;52.582;13.408;2023-07-02T03:04:42;8.63;;;5.40;;
22138;SDS011;25815;52.582;13.408;2023-07-02T03:07:09;9.70;;;5.63;;
22138;SDS011;25815;52.582;13.408;2023-07-02T03:09:35;6.38;;;4.88;;
22138;SDS011;25815;52.582;13.408;2023-07-02T03:12:01;6.30;;;5.70;;
22138;SDS011;25815;52.582;13.408;2023-07-02T03:14:27;8.35;;;5.68;;
22138;SDS011;25815;52.582;13.408;2023-07-02T03:16:53;6.47;;;5.32;;
22138;SDS011;25815;52.582;13.408;2023-07-02T03:19:19;6.50;;;5.90;;
22138;SDS011;25815;52.582;13.408;2023-07-02T03:21:45;7.13;;;5.20;;
22138;SDS011;25815;52.582;13.408;2023-07-02T03:26:40;6.88;;;5.07;;
22138;SDS011;25815;52.582;13.408;2023-07-02T03:29:06;6.82;;;5.00;;
22138;SDS011;25815;52.582;13.408;2023-07-02T03:31:32;6.57;;;5.22;;
22138;SDS011;25815;52.582;13.408;2023-07-02T03:33:59;6.30;;;4.80;;
22138;SDS011;25815;52.582;13.408;2023-07-02T03:36:25;7.18;;;4.82;;
22138;SDS011;25815;52.582;13.408;2023-07-02T03:38:51;6.15;;;4.95;;
22138;SDS011;25815;52.582;13.408;2023-07-02T03:41:17;5.82;;;4.82;;
22138;SDS011;25815;52.582;13.408;2023-07-02T03:43:43;7.93;;;4.97;;
22138;SDS011;25815;52.582;13.408;2023-07-02T03:46:09;8.05;;;4.75;;
22138;SDS011;25815;52.582;13.408;2023-07-02T03:48:35;9.55;;;4.97;;
22138;SDS011;25815;52.582;13.408;2023-07-02T03:51:01;6.28;;;4.85;;
22138;SDS011;25815;52.582;13.408;2023-07-02T03:53:28;5.68;;;4.82;;
22138;SDS011;25815;52.582;13.408;2023-07-02T03:55:54;5.10;;;4.60;;
22138;SDS011;25815;52.582;13.408;2023-07-02T03:58:20;6.47;;;4.80;;
22138;SDS011;25815;52.582;13.408;2023-07-02T04:00:46;7.00;;;4.40;;
22138;SDS011;25815;52.582;13.408;2023-07-02T04:03:14;6.05;;;4.60;;
22138;SDS011;25815;52.582;13.408;2023-07-02T04:05:40;6.60;;;4.35;;
22138;SDS011;25815;52.582;13.408;2023-07-02T04:08:06;6.18;;;4.75;;
22138;SDS011;25815;52.582;13.408;2023-07-02T04:10:32;6.72;;;4.47;;
22138;SDS011;25815;52.582;13.408;2023-07-02T04:12:58;5.18;;;4.60;;
22138;SDS011;25815;52.582;13.408;2023-07-02T04:15:24;6.82;;;4.20;;
22138;SDS011;25815;52.582;13.408;2023-07-02T04:17:51;8.50;;;4.60;;
22138;SDS011;25815;52.582;13.408;2023-07-02T04:20:18;7.07;;;3.90;;
22138;SDS011;25815;52.582;13.408;2023-07-02T04:22:44;6.68;;;4.13;;
22138;SDS011;25815;52.582;13.408;2023-07-02T04:25:11;5.43;;;4.03;;
22138;SDS011;25815;52.582;13.408;2023-07-02T04:27:40;7.13;;;3.78;;
22138;SDS011;25815;52.582;13.408;2023-07-02T04:30:06;6.65;;;4.03;;
22138;SDS011;25815;52.582;13.408;2023-07-02T04:32:33;7.47;;;3.88;;
22138;SDS011;25815;52.582;13.408;2023-07-02T04:34:59;6.63;;;4.28;;
22138;SDS011;25815;52.582;13.408;2023-07-02T04:37:25;5.07;;;3.60;;
22138;SDS011;25815;52.582;13.408;2023-07-02T04:39:52;8.10;;;3.83;;
22138;SDS011;25815;52.582;13.408;2023-07-02T04:42:18;8.30;;;3.90;;
22138;SDS011;25815;52.582;13.408;2023-07-02T04:44:44;7.22;;;3.85;;
22138;SDS011;25815;52.582;13.408;2023-07-02T04:47:10;7.32;;;3.88;;
22138;SDS011;25815;52.582;13.408;2023-07-02T04:49:36;5.13;;;3.60;;
22138;SDS011;25815;52.582;13.408;2023-07-02T04:52:03;4.93;;;3.90;;
22138;SDS011;25815;52.582;13.408;2023-07-02T04:54:28;8.63;;;3.78;;
22138;SDS011;25815;52.582;13.408;2023-07-02T04:56:54;5.88;;;3.47;;
22138;SDS011;25815;52.582;13.408;2023-07-02T04:59:20;3.92;;;3.38;;
22138;SDS011;25815;52.582;13.408;2023-07-02T05:01:47;7.45;;;3.80;;
22138;SDS011;25815;52.582;13.408;2023-07-02T05:04:13;8.00;;;3.47;;
22138;SDS011;25815;52.582;13.408;2023-07-02T05:06:39;4.82;;;3.67;;
22138;SDS011;25815;52.582;13.408;2023-07-02T05:09:05;4.45;;;3.55;;
22138;SDS011;25815;52.582;13.408;2023-07-02T05:11:30;6.50;;;3.88;;
22138;SDS011;25815;52.582;13.408;2023-07-02T05:13:56;8.13;;;3.63;;
22138;SDS011;25815;52.582;13.408;2023-07-02T05:16:22;4.93;;;3.13;;
22138;SDS011;25815;52.582;13.408;2023-07-02T05:18:48;6.22;;;3.53;;
22138;SDS011;25815;52.582;13.408;2023-07-02T05:21:17;5.40;;;3.38;;
22138;SDS011;25815;52.582;13.408;2023-07-02T05:23:43;4.50;;;2.87;;
22138;SDS011;25815;52.582;13.408;2023-07-02T05:26:09;5.82;;;3.28;;
22138;SDS011;25815;52.582;13.408;2023-07-02T05:28:35;3.95;;;2.67;;
22138;SDS011;25815;52.582;13.408;2023-07-02T05:31:01;4.95;;;2.97;;
22138;SDS011;25815;52.582;13.408;2023-07-02T05:33:27;5.53;;;3.10;;
22138;SDS011;25815;52.582;13.408;2023-07-02T05:35:52;6.63;;;2.50;;
22138;SDS011;25815;52.582;13.408;2023-07-02T05:38:18;3.22;;;2.75;;
22138;SDS011;25815;52.582;13.408;2023-07-02T05:40:45;7.82;;;2.92;;
22138;SDS011;25815;52.582;13.408;2023-07-02T05:43:11;5.25;;;2.38;;
22138;SDS011;25815;52.582;13.408;2023-07-02T05:45:37;5.97;;;2.50;;
22138;SDS011;25815;52.582;13.408;2023-07-02T05:48:03;4.93;;;2.65;;
22138;SDS011;25815;52.582;13.408;2023-07-02T05:50:29;6.40;;;2.70;;
22138;SDS011;25815;52.582;13.408;2023-07-02T05:52:55;4.65;;;2.47;;
22138;SDS011;25815;52.582;13.408;2023-07-02T05:55:21;3.60;;;2.42;;
22138;SDS011;25815;52.582;13.408;2023-07-02T05:57:47;8.13;;;2.50;;
22138;SDS011;25815;52.582;13.408;2023-07-02T06:00:13;4.65;;;2.40;;
22138;SDS011;25815;52.582;13.408;2023-07-02T06:02:39;6.90;;;2.72;;
22138;SDS011;25815;52.582;13.408;2023-07-02T06:05:05;4.68;;;2.40;;
22138;SDS011;25815;52.582;13.408;2023-07-02T06:07:31;5.22;;;2.97;;
22138;SDS011;25815;52.582;13.408;2023-07-02T06:09:57;4.32;;;2.13;;
22138;SDS011;25815;52.582;13.408;2023-07-02T06:12:23;5.40;;;2.00;;
22138;SDS011;25815;52.582;13.408;2023-07-02T06:14:49;8.30;;;2.55;;
22138;SDS011;25815;52.582;13.408;2023-07-02T06:17:15;3.10;;;2.00;;
22138;SDS011;25815;52.582;13.408;2023-07-02T06:19:41;3.22;;;2.17;;
22138;SDS011;25815;52.582;13.408;2023-07-02T06:22:07;7.88;;;2.30;;
22138;SDS011;25815;52.582;13.408;2023-07-02T06:24:33;6.15;;;2.22;;
22138;SDS011;25815;52.582;13.408;2023-07-02T06:26:58;6.40;;;2.17;;
22138;SDS011;25815;52.582;13.408;2023-07-02T06:29:24;4.97;;;2.50;;
22138;SDS011;25815;52.582;13.408;2023-07-02T06:31:51;4.95;;;2.60;;
22138;SDS011;25815;52.582;13.408;2023-07-02T06:34:17;6.88;;;2.15;;
22138;SDS011;25815;52.582;13.408;2023-07-02T06:36:42;2.85;;;2.00;;
22138;SDS011;25815;52.582;13.408;2023-07-02T06:39:08;7.25;;;2.42;;
22138;SDS011;25815;52.582;13.408;2023-07-02T06:41:35;4.68;;;2.25;;
22138;SDS011;25815;52.582;13.408;2023-07-02T06:44:01;5.70;;;2.33;;
22138;SDS011;25815;52.582;13.408;2023-07-02T06:46:27;7.22;;;2.58;;
22138;SDS011;25815;52.582;13.408;2023-07-02T06:48:54;3.65;;;1.92;;
22138;SDS011;25815;52.582;13.408;2023-07-02T06:51:20;6.57;;;2.35;;
22138;SDS011;25815;52.582;13.408;2023-07-02T06:53:46;5.60;;;2.20;;
22138;SDS011;25815;52.582;13.408;2023-07-02T06:56:12;4.25;;;2.00;;
22138;SDS011;25815;52.582;13.408;2023-07-02T06:58:44;5.53;;;2.40;;
22138;SDS011;25815;52.582;13.408;2023-07-02T07:01:10;7.22;;;2.50;;
22138;SDS011;25815;52.582;13.408;2023-07-02T07:03:36;4.65;;;2.20;;
22138;SDS011;25815;52.582;13.408;2023-07-02T07:06:02;6.75;;;2.35;;
22138;SDS011;25815;52.582;13.408;2023-07-02T07:08:28;5.97;;;2.20;;
22138;SDS011;25815;52.582;13.408;2023-07-02T07:10:54;6.43;;;2.08;;
22138;SDS011;25815;52.582;13.408;2023-07-02T07:13:20;5.05;;;2.20;;
22138;SDS011;25815;52.582;13.408;2023-07-02T07:15:46;6.80;;;1.98;;
22138;SDS011;25815;52.582;13.408;2023-07-02T07:18:12;5.15;;;2.33;;
22138;SDS011;25815;52.582;13.408;2023-07-02T07:20:39;6.00;;;2.38;;
22138;SDS011;25815;52.582;13.408;2023-07-02T07:23:05;3.92;;;2.47;;
22138;SDS011;25815;52.582;13.408;2023-07-02T07:25:31;4.72;;;2.10;;
22138;SDS011;25815;52.582;13.408;2023-07-02T07:27:58;5.10;;;2.33;;
22138;SDS011;25815;52.582;13.408;2023-07-02T07:30:25;4.75;;;2.28;;
22138;SDS011;25815;52.582;13.408;2023-07-02T07:32:54;4.40;;;2.30;;
22138;SDS011;25815;52.582;13.408;2023-07-02T07:35:20;4.30;;;2.50;;
22138;SDS011;25815;52.582;13.408;2023-07-02T07:37:46;3.55;;;2.60;;
22138;SDS011;25815;52.582;13.408;2023-07-02T07:40:12;4.10;;;2.45;;
22138;SDS011;25815;52.582;13.408;2023-07-02T07:42:39;6.72;;;2.60;;
22138;SDS011;25815;52.582;13.408;2023-07-02T07:45:05;5.95;;;2.53;;
22138;SDS011;25815;52.582;13.408;2023-07-02T07:47:31;6.32;;;2.25;;
22138;SDS011;25815;52.582;13.408;2023-07-02T07:49:56;5.03;;;2.13;;
22138;SDS011;25815;52.582;13.408;2023-07-02T07:52:22;4.07;;;2.08;;
22138;SDS011;25815;52.582;13.408;2023-07-02T07:54:48;5.45;;;2.22;;
22138;SDS011;25815;52.582;13.408;2023-07-02T07:57:14;6.13;;;2.40;;
22138;SDS011;25815;52.582;13.408;2023-07-02T07:59:40;5.55;;;2.42;;
22138;SDS011;25815;52.582;13.408;2023-07-02T08:02:06;7.63;;;2.88;;
22138;SDS011;25815;52.582;13.408;2023-07-02T08:04:32;8.45;;;4.45;;
22138;SDS011;25815;52.582;13.408;2023-07-02T08:06:58;4.47;;;2.40;;
22138;SDS011;25815;52.582;13.408;2023-07-02T08:09:24;5.82;;;2.50;;
22138;SDS011;25815;52.582;13.408;2023-07-02T08:11:50;3.17;;;2.03;;
22138;SDS011;25815;52.582;13.408;2023-07-02T08:14:16;5.97;;;2.47;;
22138;SDS011;25815;52.582;13.408;2023-07-02T08:16:45;4.07;;;2.35;;
22138;SDS011;25815;52.582;13.408;2023-07-02T08:19:11;5.47;;;2.67;;
22138;SDS011;25815;52.582;13.408;2023-07-02T08:21:37;6.28;;;2.53;;
22138;SDS011;25815;52.582;13.408;2023-07-02T08:24:03;4.70;;;2.45;;
22138;SDS011;25815;52.582;13.408;2023-07-02T08:26:30;5.35;;;2.70;;
22138;SDS011;25815;52.582;13.408;2023-07-02T08:28:56;4.57;;;2.47;;
22138;SDS011;25815;52.582;13.408;2023-07-02T08:31:22;4.32;;;2.75;;
22138;SDS011;25815;52.582;13.408;2023-07-02T08:33:48;7.95;;;3.05;;
22138;SDS011;25815;52.582;13.408;2023-07-02T08:36:14;5.93;;;3.10;;
22138;SDS011;25815;52.582;13.408;2023-07-02T08:38:40;7.05;;;2.75;;
22138;SDS011;25815;52.582;13.408;2023-07-02T08:41:08;4.32;;;2.85;;
22138;SDS011;25815;52.582;13.408;2023-07-02T08:43:34;4.63;;;2.55;;
22138;SDS011;25815;52.582;13.408;2023-07-02T08:46:01;5.30;;;3.22;;
22138;SDS011;25815;52.582;13.408;2023-07-02T08:48:27;4.03;;;2.72;;
22138;SDS011;25815;52.582;13.408;2023-07-02T08:50:54;4.25;;;2.53;;
22138;SDS011;25815;52.582;13.408;2023-07-02T08:53:20;5.03;;;2.90;;
22138;SDS011;25815;52.582;13.408;2023-07-02T08:55:54;5.85;;;2.67;;
22138;SDS011;25815;52.582;13.408;2023-07-02T08:58:20;5.93;;;2.78;;
22138;SDS011;25815;52.582;13.408;2023-07-02T09:03:32;8.73;;;2.90;;
22138;SDS011;25815;52.582;13.408;2023-07-02T09:05:58;6.43;;;3.35;;
22138;SDS011;25815;52.582;13.408;2023-07-02T09:08:24;4.47;;;2.67;;
22138;SDS011;25815;52.582;13.408;2023-07-02T09:10:50;6.05;;;2.80;;
22138;SDS011;25815;52.582;13.408;2023-07-02T09:13:16;8.00;;;2.92;;
22138;SDS011;25815;52.582;13.408;2023-07-02T09:15:42;4.63;;;2.95;;
22138;SDS011;25815;52.582;13.408;2023-07-02T09:18:15;6.95;;;3.33;;
22138;SDS011;25815;52.582;13.408;2023-07-02T09:20:41;7.85;;;3.63;;
22138;SDS011;25815;52.582;13.408;2023-07-02T09:23:07;10.00;;;3.47;;
22138;SDS011;25815;52.582;13.408;2023-07-02T09:25:33;9.25;;;3.88;;
22138;SDS011;25815;52.582;13.408;2023-07-02T09:27:59;6.93;;;3.65;;
22138;SDS011;25815;52.582;13.408;2023-07-02T09:30:25;9.88;;;3.70;;
22138;SDS011;25815;52.582;13.408;2023-07-02T09:32:51;8.70;;;3.47;;
22138;SDS011;25815;52.582;13.408;2023-07-02T09:35:19;6.53;;;3.47;;
22138;SDS011;25815;52.582;13.408;2023-07-02T09:37:45;7.82;;;3.70;;
22138;SDS011;25815;52.582;13.408;2023-07-02T09:40:11;12.25;;;4.32;;
22138;SDS011;25815;52.582;13.408;2023-07-02T09:42:38;12.02;;;4.50;;
22138;SDS011;25815;52.582;13.408;2023-07-02T09:45:06;9.52;;;3.88;;
22138;SDS011;25815;52.582;13.408;2023-07-02T09:47:33;10.02;;;3.90;;
22138;SDS011;25815;52.582;13.408;2023-07-02T09:50:04;10.05;;;4.10;;
22138;SDS011;25815;52.582;13.408;2023-07-02T09:52:30;9.48;;;4.50;;
22138;SDS011;25815;52.582;13.408;2023-07-02T09:54:56;13.05;;;4.90;;
22138;SDS011;25815;52.582;13.408;2023-07-02T09:57:22;7.80;;;3.25;;
22138;SDS011;25815;52.582;13.408;2023-07-02T09:59:48;8.32;;;4.25;;
22138;SDS011;25815;52.582;13.408;2023-07-02T10:02:15;14.32;;;5.00;;
22138;SDS011;25815;52.582;13.408;2023-07-02T10:04:44;13.52;;;5.30;;
22138;SDS011;25815;52.582;13.408;2023-07-02T10:07:11;13.60;;;5.07;;
22138;SDS011;25815;52.582;13.408;2023-07-02T10:09:38;11.18;;;4.47;;
22138;SDS011;25815;52.582;13.408;2023-07-02T10:12:17;10.02;;;4.90;;
22138;SDS011;25815;52.582;13.408;2023-07-02T10:14:44;12.90;;;5.10;;
22138;SDS011;25815;52.582;13.408;2023-07-02T10:17:10;11.77;;;5.10;;
22138;SDS011;25815;52.582;13.408;2023-07-02T10:19:36;12.23;;;4.55;;
22138;SDS011;25815;52.582;13.408;2023-07-02T10:22:02;12.48;;;4.43;;
22138;SDS011;25815;52.582;13.408;2023-07-02T10:24:29;14.48;;;4.93;;
22138;SDS011;25815;52.582;13.408;2023-07-02T10:26:59;12.35;;;5.35;;
22138;SDS011;25815;52.582;13.408;2023-07-02T10:29:25;12.60;;;4.22;;
22138;SDS011;25815;52.582;13.408;2023-07-02T10:31:52;12.93;;;5.05;;
22138;SDS011;25815;52.582;13.408;2023-07-02T10:34:28;12.15;;;4.53;;
22138;SDS011;25815;52.582;13.408;2023-07-02T10:36:54;11.38;;;4.70;;
22138;SDS011;25815;52.582;13.408;2023-07-02T10:39:20;11.65;;;4.97;;
22138;SDS011;25815;52.582;13.408;2023-07-02T10:41:46;16.55;;;5.03;;
22138;SDS011;25815;52.582;13.408;2023-07-02T10:44:13;10.05;;;4.63;;
22138;SDS011;25815;52.582;13.408;2023-07-02T10:46:45;11.38;;;4.70;;
22138;SDS011;25815;52.582;13.408;2023-07-02T10:49:11;9.35;;;4.80;;
22138;SDS011;25815;52.582;13.408;2023-07-02T10:51:38;11.95;;;4.80;;
22138;SDS011;25815;52.582;13.408;2023-07-02T10:54:04;9.68;;;4.82;;
22138;SDS011;25815;52.582;13.408;2023-07-02T10:56:31;8.68;;;4.05;;
22138;SDS011;25815;52.582;13.408;2023-07-02T10:58:57;13.68;;;4.65;;
22138;SDS011;25815;52.582;13.408;2023-07-02T11:01:29;12.80;;;4.95;;
22138;SDS011;25815;52.582;13.408;2023-07-02T11:03:59;10.18;;;4.55;;
22138;SDS011;25815;52.582;13.408;2023-07-02T11:06:26;12.82;;;4.93;;
22138;SDS011;25815;52.582;13.408;2023-07-02T11:08:52;12.27;;;4.75;;
22138;SDS011;25815;52.582;13.408;2023-07-02T11:11:20;11.43;;;5.05;;
22138;SDS011;25815;52.582;13.408;2023-07-02T11:13:46;15.45;;;4.85;;
22138;SDS011;25815;52.582;13.408;2023-07-02T11:16:23;15.43;;;5.55;;
22138;SDS011;25815;52.582;13.408;2023-07-02T11:18:53;12.65;;;4.80;;
22138;SDS011;25815;52.582;13.408;2023-07-02T11:23:46;10.55;;;5.32;;
22138;SDS011;25815;52.582;13.408;2023-07-02T11:26:12;16.58;;;5.25;;
22138;SDS011;25815;52.582;13.408;2023-07-02T11:28:47;10.20;;;5.38;;
22138;SDS011;25815;52.582;13.408;2023-07-02T11:31:13;14.38;;;5.65;;
22138;SDS011;25815;52.582;13.408;2023-07-02T11:33:39;15.55;;;6.28;;
22138;SDS011;25815;52.582;13.408;2023-07-02T11:36:06;12.68;;;5.43;;
22138;SDS011;25815;52.582;13.408;2023-07-02T11:38:33;12.63;;;5.18;;
22138;SDS011;25815;52.582;13.408;2023-07-02T11:40:59;13.30;;;5.00;;
22138;SDS011;25815;52.582;13.408;2023-07-02T11:43:25;11.75;;;5.10;;
22138;SDS011;25815;52.582;13.408;2023-07-02T11:45:51;13.88;;;6.13;;
22138;SDS011;25815;52.582;13.408;2023-07-02T11:48:17;11.40;;;4.97;;
22138;SDS011;25815;52.582;13.408;2023-07-02T11:50:43;13.63;;;5.35;;
22138;SDS011;25815;52.582;13.408;2023-07-02T11:53:09;11.90;;;5.40;;
22138;SDS011;25815;52.582;13.408;2023-07-02T11:55:36;13.30;;;5.68;;
22138;SDS011;25815;52.582;13.408;2023-07-02T11:58:02;13.88;;;5.30;;
22138;SDS011;25815;52.582;13.408;2023-07-02T12:00:28;10.07;;;5.45;;
22138;SDS011;25815;52.582;13.408;2023-07-02T12:02:54;13.50;;;5.32;;
22138;SDS011;25815;52.582;13.408;2023-07-02T12:05:20;12.77;;;5.38;;
22138;SDS011;25815;52.582;13.408;2023-07-02T12:07:46;11.70;;;5.43;;
22138;SDS011;25815;52.582;13.408;2023-07-02T12:10:12;11.35;;;5.32;;
22138;SDS011;25815;52.582;13.408;2023-07-02T12:12:38;9.77;;;5.03;;
22138;SDS011;25815;52.582;13.408;2023-07-02T12:15:04;14.10;;;5.63;;
22138;SDS011;25815;52.582;13.408;2023-07-02T12:17:30;10.98;;;5.50;;
22138;SDS011;25815;52.582;13.408;2023-07-02T12:19:56;13.52;;;6.00;;
22138;SDS011;25815;52.582;13.408;2023-07-02T12:22:22;13.68;;;5.60;;
22138;SDS011;25815;52.582;13.408;2023-07-02T12:24:48;13.10;;;5.80;;
22138;SDS011;25815;52.582;13.408;2023-07-02T12:27:15;9.82;;;5.05;;
22138;SDS011;25815;52.582;13.408;2023-07-02T12:29:41;13.90;;;5.45;;
22138;SDS011;25815;52.582;13.408;2023-07-02T12:32:07;15.18;;;5.18;;
22138;SDS011;25815;52.582;13.408;2023-07-02T12:34:33;10.57;;;5.53;;
22138;SDS011;25815;52.582;13.408;2023-07-02T12:36:59;14.40;;;5.43;;
22138;SDS011;25815;52.582;13.408;2023-07-02T12:39:25;9.15;;;5.18;;
22138;SDS011;25815;52.582;13.408;2023-07-02T12:41:51;12.95;;;5.50;;
22138;SDS011;25815;52.582;13.408;2023-07-02T12:44:17;17.58;;;5.80;;
22138;SDS011;25815;52.582;13.408;2023-07-02T12:46:43;12.32;;;5.43;;
22138;SDS011;25815;52.582;13.408;2023-07-02T12:49:09;13.38;;;5.18;;
22138;SDS011;25815;52.582;13.408;2023-07-02T12:51:35;11.75;;;5.40;;
22138;SDS011;25815;52.582;13.408;2023-07-02T12:54:01;14.13;;;5.25;;
22138;SDS011;25815;52.582;13.408;2023-07-02T12:56:27;12.38;;;5.55;;
22138;SDS011;25815;52.582;13.408;2023-07-02T12:58:53;13.75;;;5.53;;
22138;SDS011;25815;52.582;13.408;2023-07-02T13:01:19;18.70;;;5.60;;
22138;SDS011;25815;52.582;13.408;2023-07-02T13:03:45;11.18;;;4.72;;
22138;SDS011;25815;52.582;13.408;2023-07-02T13:06:12;13.07;;;5.28;;
22138;SDS011;25815;52.582;13.408;2023-07-02T13:08:38;13.98;;;5.72;;
22138;SDS011;25815;52.582;13.408;2023-07-02T13:11:04;19.33;;;5.70;;
22138;SDS011;25815;52.582;13.408;2023-07-02T13:13:30;13.90;;;5.82;;
22138;SDS011;25815;52.582;13.408;2023-07-02T13:15:56;13.23;;;5.95;;
22138;SDS011;25815;52.582;13.408;2023-07-02T13:18:22;11.98;;;5.65;;
22138;SDS011;25815;52.582;13.408;2023-07-02T13:20:48;10.80;;;5.43;;
22138;SDS011;25815;52.582;13.408;2023-07-02T13:23:15;12.85;;;5.05;;
22138;SDS011;25815;52.582;13.408;2023-07-02T13:25:41;12.77;;;5.63;;
22138;SDS011;25815;52.582;13.408;2023-07-02T13:28:06;13.93;;;5.50;;
22138;SDS011;25815;52.582;13.408;2023-07-02T13:30:32;12.50;;;5.68;;
22138;SDS011;25815;52.582;13.408;2023-07-02T13:32:58;14.30;;;5.75;;
22138;SDS011;25815;52.582;13.408;2023-07-02T13:35:24;12.50;;;5.25;;
22138;SDS011;25815;52.582;13.408;2023-07-02T13:37:50;16.63;;;6.13;;
22138;SDS011;25815;52.582;13.408;2023-07-02T13:40:17;19.83;;;6.13;;
22138;SDS011;25815;52.582;13.408;2023-07-02T13:42:42;11.75;;;5.93;;
22138;SDS011;25815;52.582;13.408;2023-07-02T13:45:09;13.75;;;6.53;;
22138;SDS011;25815;52.582;13.408;2023-07-02T13:47:35;15.00;;;7.13;;
22138;SDS011;25815;52.582;13.408;2023-07-02T13:50:02;14.85;;;6.38;;
22138;SDS011;25815;52.582;13.408;2023-07-02T13:52:28;13.55;;;6.25;;
22138;SDS011;25815;52.582;13.408;2023-07-02T13:54:54;13.20;;;5.07;;
22138;SDS011;25815;52.582;13.408;2023-07-02T13:57:20;11.45;;;5.03;;
22138;SDS011;25815;52.582;13.408;2023-07-02T13:59:46;16.35;;;6.35;;
22138;SDS011;25815;52.582;13.408;2023-07-02T14:02:12;11.77;;;5.20;;
22138;SDS011;25815;52.582;13.408;2023-07-02T14:04:38;12.90;;;5.57;;
22138;SDS011;25815;52.582;13.408;2023-07-02T14:07:04;13.85;;;5.10;;
22138;SDS011;25815;52.582;13.408;2023-07-02T14:09:30;15.05;;;4.93;;
22138;SDS011;25815;52.582;13.408;2023-07-02T14:11:56;9.93;;;5.00;;
22138;SDS011;25815;52.582;13.408;2023-07-02T14:14:22;12.40;;;5.53;;
22138;SDS011;25815;52.582;13.408;2023-07-02T14:16:48;12.73;;;5.28;;
22138;SDS011;25815;52.582;13.408;2023-07-02T14:19:14;11.48;;;5.38;;
22138;SDS011;25815;52.582;13.408;2023-07-02T14:21:41;11.70;;;5.60;;
22138;SDS011;25815;52.582;13.408;2023-07-02T14:24:07;13.30;;;6.00;;
22138;SDS011;25815;52.582;13.408;2023-07-02T14:26:34;12.43;;;5.47;;
22138;SDS011;25815;52.582;13.408;2023-07-02T14:29:00;13.23;;;5.63;;
22138;SDS011;25815;52.582;13.408;2023-07-02T14:31:26;10.10;;;5.07;;
22138;SDS011;25815;52.582;13.408;2023-07-02T14:33:52;12.35;;;5.22;;
22138;SDS011;25815;52.582;13.408;2023-07-02T14:36:18;15.70;;;5.45;;